Time;durP1;ratioP1;P1;durP2;ratioP2;P2;SDS_P1;SDS_P2;PMS_P1;PMS_P2;Temp;Humidity;BMP_temperature;BMP_pressure;BME280_temperature;BME280_humidity;BME280_pressure;Samples;Min_cycle;Max_cycle;Signal;HPM_P1;HPM_P2
2023/02/03 00:01:08;;;;;;;91.57;56.60;;;4.60;92.60;;;;;;5053148;28;20067;-71
2023/02/03 00:03:34;;;;;;;93.27;57.83;;;4.60;92.60;;;;;;5053331;28;20040;-71
2023/02/03 00:06:02;;;;;;;93.83;56.27;;;4.70;92.80;;;;;;5053566;28;20037;-71
2023/02/03 00:08:27;;;;;;;87.77;54.90;;;4.70;92.90;;;;;;5053366;28;20037;-71
2023/02/03 00:10:53;;;;;;;90.03;53.90;;;4.70;92.90;;;;;;5053234;28;20041;-71
2023/02/03 00:13:19;;;;;;;78.30;48.50;;;4.70;93.00;;;;;;5053213;28;20041;-70
2023/02/03 00:15:45;;;;;;;79.37;48.33;;;4.70;93.00;;;;;;5053119;28;20029;-71
2023/02/03 00:18:11;;;;;;;70.10;44.20;;;4.80;93.00;;;;;;5052801;28;20060;-71
2023/02/03 00:20:37;;;;;;;68.70;43.17;;;4.80;92.90;;;;;;5052686;28;20033;-70
2023/02/03 00:23:08;;;;;;;71.37;44.13;;;4.80;92.90;;;;;;5053133;28;20078;-71
2023/02/03 00:25:33;;;;;;;67.87;42.83;;;4.80;92.90;;;;;;5053101;28;20044;-71
2023/02/03 00:27:59;;;;;;;60.43;37.57;;;4.90;92.90;;;;;;5052830;28;20037;-70
2023/02/03 00:30:25;;;;;;;61.93;39.20;;;4.80;92.80;;;;;;5052902;28;20028;-71
2023/02/03 00:32:51;;;;;;;65.17;40.30;;;4.90;92.80;;;;;;5052447;28;20049;-71
2023/02/03 00:35:17;;;;;;;66.07;41.20;;;4.90;92.80;;;;;;5052867;28;20176;-70
2023/02/03 00:37:43;;;;;;;68.47;41.27;;;4.80;92.70;;;;;;5053027;28;20043;-70
2023/02/03 00:40:09;;;;;;;67.53;41.70;;;4.80;92.70;;;;;;5052666;28;20103;-70
2023/02/03 00:42:35;;;;;;;65.13;41.73;;;4.90;92.70;;;;;;5052772;28;20028;-70
2023/02/03 00:45:01;;;;;;;63.67;39.53;;;4.90;92.60;;;;;;5052749;28;20040;-71
2023/02/03 00:47:27;;;;;;;61.43;37.50;;;4.90;92.50;;;;;;5052354;28;20037;-71
2023/02/03 00:49:52;;;;;;;60.93;38.37;;;4.90;92.50;;;;;;5052746;28;20127;-71
2023/02/03 00:52:18;;;;;;;63.27;37.77;;;4.90;92.50;;;;;;5052632;28;20103;-71
2023/02/03 00:54:44;;;;;;;60.13;36.63;;;4.90;92.50;;;;;;5052584;28;20029;-70
2023/02/03 00:57:09;;;;;;;55.90;35.40;;;4.80;92.30;;;;;;5052713;28;20059;-70
2023/02/03 00:59:35;;;;;;;56.87;34.10;;;4.80;92.30;;;;;;5052569;28;20032;-70
2023/02/03 01:02:01;;;;;;;54.53;32.83;;;4.80;92.40;;;;;;5052308;28;20115;-71
2023/02/03 01:04:27;;;;;;;52.00;31.67;;;4.80;92.40;;;;;;5052595;28;20543;-70
2023/02/03 01:06:56;;;;;;;53.57;33.20;;;4.90;92.30;;;;;;5052429;28;20045;-71
2023/02/03 01:09:22;;;;;;;50.87;33.40;;;4.80;92.30;;;;;;5052428;28;20058;-71
2023/02/03 01:11:48;;;;;;;53.37;33.13;;;4.90;92.40;;;;;;5052324;28;20433;-71
2023/02/03 01:14:14;;;;;;;57.37;37.00;;;4.90;92.30;;;;;;5034553;28;20036;-70
2023/02/03 01:16:39;;;;;;;59.13;37.17;;;4.90;92.30;;;;;;5052615;28;20427;-70
2023/02/03 01:19:05;;;;;;;61.97;37.47;;;4.90;92.30;;;;;;5049957;28;20041;-71
2023/02/03 01:21:32;;;;;;;63.07;39.60;;;4.90;92.20;;;;;;5049623;28;20036;-70
2023/02/03 01:23:58;;;;;;;62.47;40.50;;;4.90;92.20;;;;;;5051571;28;20033;-70
2023/02/03 01:26:24;;;;;;;60.67;39.23;;;4.90;92.20;;;;;;5052308;28;20060;-70
2023/02/03 01:28:55;;;;;;;68.97;40.83;;;4.90;92.20;;;;;;5052505;28;20067;-70
2023/02/03 01:31:27;;;;;;;71.47;42.47;;;4.80;92.10;;;;;;5052184;28;20040;-71
2023/02/03 01:33:53;;;;;;;64.50;40.27;;;4.90;92.10;;;;;;5052548;28;20033;-71
2023/02/03 01:36:22;;;;;;;63.97;40.53;;;4.80;92.10;;;;;;5052379;28;20394;-71
2023/02/03 01:38:48;;;;;;;64.60;39.23;;;4.80;92.10;;;;;;5052311;28;20032;-70
2023/02/03 01:41:19;;;;;;;60.23;38.23;;;4.80;92.00;;;;;;5052173;28;20060;-70
2023/02/03 01:43:48;;;;;;;60.23;38.60;;;4.80;91.90;;;;;;5049815;28;20033;-70
2023/02/03 01:46:25;;;;;;;58.87;36.63;;;4.80;92.00;;;;;;5051638;28;20375;-70
2023/02/03 01:48:54;;;;;;;58.20;34.20;;;4.80;92.10;;;;;;5053633;28;20041;-71
2023/02/03 01:51:22;;;;;;;48.87;30.57;;;4.70;92.10;;;;;;5055670;28;20095;-70
2023/02/03 01:53:50;;;;;;;48.30;29.83;;;4.80;92.10;;;;;;5055855;28;20043;-70
2023/02/03 01:56:16;;;;;;;48.20;30.07;;;4.80;92.10;;;;;;5056073;28;20044;-70
2023/02/03 01:58:43;;;;;;;52.77;32.77;;;4.80;92.00;;;;;;5055614;28;20106;-70
2023/02/03 02:01:09;;;;;;;51.00;30.43;;;4.80;92.00;;;;;;5055530;28;20086;-71
2023/02/03 02:03:50;;;;;;;52.70;32.37;;;4.80;92.00;;;;;;5055567;28;20037;-71
2023/02/03 02:06:15;;;;;;;51.90;32.50;;;4.80;91.90;;;;;;5055078;28;20033;-70
2023/02/03 02:08:46;;;;;;;53.13;31.83;;;4.80;91.90;;;;;;5055580;28;20066;-71
2023/02/03 02:11:12;;;;;;;53.77;33.27;;;4.70;91.90;;;;;;5055535;28;20498;-70
2023/02/03 02:13:38;;;;;;;55.67;34.57;;;4.70;91.90;;;;;;5055290;28;20049;-70
2023/02/03 02:16:26;;;;;;;61.37;35.13;;;4.70;91.90;;;;;;5055375;28;20033;-71
2023/02/03 02:18:51;;;;;;;52.83;33.80;;;4.70;91.80;;;;;;5055573;28;20111;-70
2023/02/03 02:21:23;;;;;;;53.00;34.27;;;4.70;91.80;;;;;;5055382;28;20061;-70
2023/02/03 02:23:57;;;;;;;50.47;31.93;;;4.70;91.80;;;;;;5055379;28;20032;-70
2023/02/03 02:26:44;;;;;;;57.27;34.00;;;4.60;91.80;;;;;;5055207;28;20033;-70
2023/02/03 02:29:13;;;;;;;55.20;33.90;;;4.60;91.80;;;;;;5054495;28;20090;-70
2023/02/03 02:31:53;;;;;;;57.37;36.17;;;4.60;91.70;;;;;;5054842;28;20108;-71
2023/02/03 02:34:30;;;;;;;56.53;33.70;;;4.60;91.60;;;;;;5055411;28;20029;-70
2023/02/03 02:37:05;;;;;;;59.50;35.70;;;4.60;91.50;;;;;;5055376;28;20033;-71
2023/02/03 02:39:52;;;;;;;59.03;35.77;;;4.50;91.40;;;;;;5054557;28;20116;-70
2023/02/03 02:42:49;;;;;;;55.07;35.30;;;4.50;91.30;;;;;;5055032;28;20053;-71
2023/02/03 02:45:35;;;;;;;54.83;34.73;;;4.50;91.30;;;;;;5004486;28;20037;-70
2023/02/03 02:48:15;;;;;;;57.97;35.27;;;4.40;91.20;;;;;;5054572;28;20033;-70
2023/02/03 02:50:43;;;;;;;48.03;31.13;;;4.30;91.20;;;;;;5054592;28;20072;-70
2023/02/03 02:53:12;;;;;;;43.13;27.80;;;4.30;91.40;;;;;;5054799;28;20144;-71
2023/02/03 02:55:40;;;;;;;38.70;25.40;;;4.30;91.60;;;;;;5054706;28;20036;-70
2023/02/03 02:58:11;;;;;;;36.53;23.17;;;4.30;91.70;;;;;;5053317;28;20083;-70
2023/02/03 03:00:39;;;;;;;34.70;22.63;;;4.30;91.80;;;;;;5054435;28;20495;-70
2023/02/03 03:03:17;;;;;;;39.73;24.50;;;4.30;91.80;;;;;;5054466;28;20040;-71
2023/02/03 03:05:49;;;;;;;40.03;23.37;;;4.40;91.80;;;;;;5054675;28;20395;-70
2023/02/03 03:08:16;;;;;;;;;;;4.40;91.60;;;;;;5055125;28;20091;-70
2023/02/03 03:10:44;;;;;;;43.17;23.93;;;4.40;91.40;;;;;;5054213;28;19909;-70
2023/02/03 03:13:16;;;;;;;54.73;29.67;;;4.40;91.30;;;;;;5054211;28;20083;-71
2023/02/03 03:15:44;;;;;;;50.42;30.13;;;4.40;91.20;;;;;;5054612;28;20029;-70
2023/02/03 03:18:18;;;;;;;49.97;30.83;;;4.30;91.00;;;;;;5054544;28;20117;-70
2023/02/03 03:20:46;;;;;;;49.33;29.50;;;4.30;90.90;;;;;;5054232;28;20078;-70
2023/02/03 03:23:23;;;;;;;56.50;33.10;;;4.20;90.50;;;;;;5054358;28;20036;-71
2023/02/03 03:25:59;;;;;;;48.50;32.03;;;4.20;90.70;;;;;;5054144;28;20147;-70
2023/02/03 03:28:36;;;;;;;51.77;31.93;;;4.10;90.80;;;;;;5054354;28;20036;-71
2023/02/03 03:31:02;;;;;;;52.80;33.33;;;4.10;90.90;;;;;;5054332;28;20095;-70
2023/02/03 03:33:27;;;;;;;53.93;33.63;;;4.10;91.00;;;;;;5054251;28;20045;-70
2023/02/03 03:36:03;;;;;;;53.23;32.77;;;4.00;90.90;;;;;;5053967;28;20080;-70
2023/02/03 03:38:54;;;;;;;51.50;32.83;;;4.00;90.70;;;;;;5054007;28;20054;-70
2023/02/03 03:41:32;;;;;;;57.17;35.67;;;4.00;90.90;;;;;;5042095;28;20380;-70
2023/02/03 03:44:02;;;;;;;59.93;35.97;;;3.90;90.60;;;;;;5053824;28;20071;-70
2023/02/03 03:46:37;;;;;;;58.80;36.30;;;3.90;90.70;;;;;;5053623;28;20037;-70
2023/02/03 03:49:06;;;;;;;57.00;34.13;;;3.80;90.80;;;;;;5053943;28;20115;-70
2023/02/03 03:51:47;;;;;;;56.30;34.10;;;3.80;90.90;;;;;;5053365;28;20029;-71
2023/02/03 03:54:17;;;;;;;62.07;36.43;;;3.70;91.00;;;;;;5053639;28;20033;-71
2023/02/03 03:56:58;;;;;;;59.73;35.67;;;3.70;90.90;;;;;;5053170;28;20036;-71
2023/02/03 03:59:28;;;;;;;61.57;36.23;;;3.70;90.90;;;;;;5053562;28;20071;-71
2023/02/03 04:01:54;;;;;;;64.13;38.90;;;3.70;90.70;;;;;;5053245;28;20057;-71
2023/02/03 04:04:22;;;;;;;58.40;35.97;;;3.70;90.70;;;;;;5053426;28;20041;-71
2023/02/03 04:06:47;;;;;;;64.83;36.73;;;3.60;90.80;;;;;;5053567;28;20079;-71
2023/02/03 04:09:13;;;;;;;64.07;38.23;;;3.60;91.00;;;;;;5052635;28;20033;-71
2023/02/03 04:14:23;;;;;;;59.00;35.60;;;3.60;91.20;;;;;;5053594;28;20079;-71
2023/02/03 04:16:48;;;;;;;54.83;34.83;;;3.60;91.40;;;;;;5053164;28;20029;-70
2023/02/03 04:19:14;;;;;;;56.40;35.37;;;3.60;91.40;;;;;;5053482;28;20033;-71
2023/02/03 04:21:40;;;;;;;65.83;35.80;;;3.50;91.60;;;;;;5053225;28;20113;-71
2023/02/03 04:24:06;;;;;;;68.10;36.07;;;3.50;91.60;;;;;;5053342;28;20111;-71
2023/02/03 04:26:32;;;;;;;63.20;35.10;;;3.50;91.50;;;;;;5053115;28;20419;-71
2023/02/03 04:28:57;;;;;;;70.70;34.67;;;3.50;91.50;;;;;;5053266;28;20055;-71
2023/02/03 04:31:23;;;;;;;64.13;36.93;;;3.50;91.50;;;;;;5053067;28;20021;-71
2023/02/03 04:33:49;;;;;;;71.17;36.53;;;3.50;91.60;;;;;;5052789;28;20041;-71
2023/02/03 04:36:14;;;;;;;61.07;35.63;;;3.50;91.60;;;;;;5053257;28;20116;-71
2023/02/03 04:38:40;;;;;;;57.03;33.93;;;3.50;91.60;;;;;;5052860;28;20033;-71
2023/02/03 04:41:06;;;;;;;59.47;36.93;;;3.40;91.60;;;;;;5052699;28;20029;-71
2023/02/03 04:43:31;;;;;;;66.43;35.57;;;3.40;91.70;;;;;;5052883;28;20037;-71
2023/02/03 04:46:00;;;;;;;58.93;36.60;;;3.40;91.70;;;;;;5053015;28;20029;-71
2023/02/03 04:48:26;;;;;;;55.43;35.93;;;3.40;91.70;;;;;;5052927;28;20103;-71
2023/02/03 04:50:52;;;;;;;62.40;37.60;;;3.40;91.70;;;;;;5052732;28;20087;-71
2023/02/03 04:53:18;;;;;;;61.47;36.93;;;3.40;91.80;;;;;;5052689;28;20372;-71
2023/02/03 04:55:47;;;;;;;57.40;33.47;;;3.40;91.90;;;;;;5052604;28;20037;-71
2023/02/03 04:58:13;;;;;;;51.63;32.73;;;3.40;92.00;;;;;;5052520;28;20033;-71
2023/02/03 05:00:39;;;;;;;52.67;32.70;;;3.40;92.10;;;;;;5052393;28;20091;-71
2023/02/03 05:03:05;;;;;;;44.30;28.57;;;3.40;92.20;;;;;;5052632;28;20063;-71
2023/02/03 05:05:30;;;;;;;46.67;29.50;;;3.50;92.30;;;;;;5052586;28;20069;-71
2023/02/03 05:07:56;;;;;;;51.33;30.40;;;3.50;92.40;;;;;;5052564;28;20033;-71
2023/02/03 05:10:22;;;;;;;49.83;30.87;;;3.40;92.20;;;;;;5052583;28;20541;-71
2023/02/03 05:12:47;;;;;;;46.03;28.37;;;3.50;92.20;;;;;;5052414;28;20071;-71
2023/02/03 05:15:13;;;;;;;48.03;30.23;;;3.50;92.10;;;;;;5052228;28;20041;-71
2023/02/03 05:17:40;;;;;;;49.87;30.97;;;3.50;92.10;;;;;;5052568;28;20060;-71
2023/02/03 05:20:06;;;;;;;52.30;31.47;;;3.50;92.00;;;;;;5052847;28;20425;-71
2023/02/03 05:22:34;;;;;;;52.67;34.07;;;3.50;92.00;;;;;;5056546;28;20021;-71
2023/02/03 05:25:00;;;;;;;54.00;33.80;;;3.50;92.00;;;;;;5056609;28;20043;-71
2023/02/03 05:27:26;;;;;;;63.23;37.10;;;3.50;92.00;;;;;;5056382;28;20036;-72
2023/02/03 05:29:52;;;;;;;62.30;38.63;;;3.40;91.90;;;;;;5056479;28;20504;-71
2023/02/03 05:32:17;;;;;;;64.87;36.90;;;3.40;91.50;;;;;;5056559;28;20045;-71
2023/02/03 05:34:43;;;;;;;60.67;37.47;;;3.30;91.70;;;;;;5056362;28;20025;-72
2023/02/03 05:37:09;;;;;;;69.30;39.03;;;3.30;91.30;;;;;;5056406;28;20029;-71
2023/02/03 05:39:35;;;;;;;63.07;37.43;;;3.30;91.30;;;;;;5056107;28;20025;-71
2023/02/03 05:42:02;;;;;;;65.30;37.30;;;3.30;91.30;;;;;;5055988;28;20029;-72
2023/02/03 05:44:28;;;;;;;61.13;36.60;;;3.20;91.20;;;;;;5055968;28;20068;-72
2023/02/03 05:46:56;;;;;;;59.37;34.10;;;3.20;91.30;;;;;;5056061;28;20032;-72
2023/02/03 05:49:22;;;;;;;58.77;35.90;;;3.20;91.40;;;;;;5055920;28;20040;-72
2023/02/03 05:51:50;;;;;;;55.67;36.30;;;3.10;91.40;;;;;;5056160;28;20041;-71
2023/02/03 05:54:16;;;;;;;56.27;36.50;;;3.20;91.60;;;;;;5055805;28;20040;-72
2023/02/03 05:56:42;;;;;;;58.43;35.67;;;3.10;91.60;;;;;;5055427;28;20033;-71
2023/02/03 05:59:08;;;;;;;55.33;34.13;;;3.10;91.80;;;;;;5055920;28;20079;-72
2023/02/03 06:01:34;;;;;;;58.17;35.50;;;3.10;91.80;;;;;;5055382;28;20049;-71
2023/02/03 06:04:00;;;;;;;52.00;32.30;;;3.10;91.90;;;;;;5055258;28;20075;-71
2023/02/03 06:06:32;;;;;;;56.50;34.73;;;3.10;91.90;;;;;;5055372;28;20033;-71
2023/02/03 06:09:02;;;;;;;52.43;32.63;;;3.10;91.90;;;;;;5055597;28;20468;-72
2023/02/03 06:11:29;;;;;;;56.60;34.03;;;3.10;91.80;;;;;;5055354;28;20029;-72
2023/02/03 06:13:57;;;;;;;57.70;32.23;;;3.10;91.90;;;;;;5055275;28;20037;-70
2023/02/03 06:16:24;;;;;;;70.47;32.83;;;3.10;92.00;;;;;;5054903;28;20033;-72
2023/02/03 06:18:54;;;;;;;63.00;33.33;;;3.10;92.00;;;;;;5037731;28;20398;-71
2023/02/03 06:21:21;;;;;;;52.40;31.60;;;3.10;92.00;;;;;;5053985;28;20071;-71
2023/02/03 06:23:47;;;;;;;55.53;30.80;;;3.10;92.00;;;;;;5035642;28;20041;-71
2023/02/03 06:26:13;;;;;;;54.40;31.60;;;3.10;92.00;;;;;;5035325;28;20403;-71
2023/02/03 06:28:38;;;;;;;48.70;30.07;;;3.10;92.10;;;;;;5035025;28;20120;-71
2023/02/03 06:31:05;;;;;;;50.00;29.13;;;3.10;92.10;;;;;;5034829;28;20048;-71
2023/02/03 06:33:31;;;;;;;42.23;27.17;;;3.10;92.10;;;;;;5034816;28;20045;-71
2023/02/03 06:35:57;;;;;;;44.33;26.57;;;3.10;92.10;;;;;;5050088;28;20064;-72
2023/02/03 06:38:23;;;;;;;41.43;25.50;;;3.10;92.30;;;;;;5034976;28;20037;-72
2023/02/03 06:40:49;;;;;;;43.23;24.70;;;3.10;92.40;;;;;;5034991;28;20531;-72
2023/02/03 06:43:15;;;;;;;40.47;24.80;;;3.10;92.40;;;;;;5034680;28;20132;-72
2023/02/03 06:45:43;;;;;;;41.63;24.03;;;3.10;92.50;;;;;;5033671;28;20032;-72
2023/02/03 06:48:09;;;;;;;39.13;23.03;;;3.20;92.60;;;;;;5035019;28;20543;-71
2023/02/03 06:50:35;;;;;;;42.80;25.10;;;3.20;92.60;;;;;;5034604;28;20061;-71
2023/02/03 06:53:00;;;;;;;43.10;25.57;;;3.20;92.70;;;;;;5035065;28;20045;-71
2023/02/03 06:55:26;;;;;;;43.90;25.57;;;3.20;92.70;;;;;;5034608;28;20026;-71
2023/02/03 06:57:52;;;;;;;45.23;23.60;;;3.20;92.70;;;;;;5034626;28;20033;-71
2023/02/03 07:00:18;;;;;;;39.20;20.97;;;3.20;92.80;;;;;;5034332;28;20041;-71
2023/02/03 07:02:44;;;;;;;38.00;21.10;;;3.30;92.80;;;;;;5034585;28;20515;-71
2023/02/03 07:05:10;;;;;;;33.60;20.73;;;3.30;92.90;;;;;;5034795;28;20029;-71
2023/02/03 07:07:38;;;;;;;34.50;20.37;;;3.30;92.90;;;;;;5034641;28;20036;-71
2023/02/03 07:10:05;;;;;;;31.37;19.63;;;3.30;92.90;;;;;;5034646;28;20459;-72
2023/02/03 07:12:31;;;;;;;32.23;19.10;;;3.40;93.00;;;;;;5032914;28;20080;-74
2023/02/03 07:14:56;;;;;;;29.03;19.63;;;3.40;93.00;;;;;;5034081;28;20068;-71
2023/02/03 07:17:22;;;;;;;28.37;18.73;;;3.40;93.00;;;;;;5034148;28;20057;-71
2023/02/03 07:19:48;;;;;;;28.63;19.23;;;3.50;93.10;;;;;;5039564;28;20039;-70
2023/02/03 07:22:14;;;;;;;31.37;19.47;;;3.50;93.10;;;;;;5047424;28;20071;-70
2023/02/03 07:24:40;;;;;;;31.43;17.97;;;3.60;93.10;;;;;;5034163;28;20038;-71
2023/02/03 07:27:05;;;;;;;27.93;17.93;;;3.60;93.10;;;;;;5034443;28;20038;-71
2023/02/03 07:29:31;;;;;;;34.10;18.60;;;3.60;93.00;;;;;;5034004;28;20068;-71
2023/02/03 07:31:57;;;;;;;30.30;18.97;;;3.70;93.00;;;;;;5034120;28;20116;-71
2023/02/03 07:34:22;;;;;;;30.57;18.40;;;3.70;93.10;;;;;;5034113;28;20068;-70
2023/02/03 07:36:48;;;;;;;33.10;18.17;;;3.80;93.00;;;;;;5034120;28;20113;-71
2023/02/03 07:39:14;;;;;;;33.40;19.27;;;3.80;93.00;;;;;;5033682;28;20116;-71
2023/02/03 07:41:40;;;;;;;35.73;21.57;;;3.90;93.00;;;;;;5032498;28;20037;-70
2023/02/03 07:44:05;;;;;;;37.97;20.77;;;3.90;92.90;;;;;;5033051;28;20038;-70
2023/02/03 07:46:31;;;;;;;36.47;20.63;;;4.00;92.80;;;;;;5033911;28;20483;-70
2023/02/03 07:48:57;;;;;;;31.40;19.90;;;4.00;92.80;;;;;;5033758;28;20029;-71
2023/02/03 07:51:23;;;;;;;35.13;19.80;;;4.00;92.70;;;;;;5033644;28;20057;-70
2023/02/03 07:53:48;;;;;;;32.57;19.93;;;4.00;92.70;;;;;;5033237;28;20068;-70
2023/02/03 07:56:14;;;;;;;38.00;20.27;;;4.10;92.80;;;;;;5033822;28;20040;-70
2023/02/03 07:58:40;;;;;;;29.50;17.70;;;4.10;92.80;;;;;;5033620;28;20045;-70
2023/02/03 08:01:14;;;;;;;28.40;16.37;;;4.10;92.70;;;;;;5032898;28;20045;-70
2023/02/03 08:03:40;;;;;;;31.50;16.70;;;4.20;92.70;;;;;;5033709;28;20040;-70
2023/02/03 08:06:07;;;;;;;29.03;16.07;;;4.20;92.60;;;;;;5033784;28;20091;-70
2023/02/03 08:08:33;;;;;;;23.83;15.40;;;4.30;92.70;;;;;;5033661;28;20087;-70
2023/02/03 08:10:59;;;;;;;27.53;14.73;;;4.30;92.60;;;;;;5033577;28;20037;-70
2023/02/03 08:13:25;;;;;;;32.43;14.50;;;4.30;92.60;;;;;;5032944;28;20067;-70
2023/02/03 08:15:51;;;;;;;26.83;16.03;;;4.40;92.60;;;;;;5033897;28;20037;-70
2023/02/03 08:18:17;;;;;;;29.73;15.37;;;4.50;92.60;;;;;;5034558;28;20041;-70
2023/02/03 08:20:43;;;;;;;23.30;15.30;;;4.50;92.50;;;;;;5033464;28;20029;-70
2023/02/03 08:23:08;;;;;;;22.50;14.47;;;4.60;92.50;;;;;;5033730;28;20112;-71
2023/02/03 08:25:34;;;;;;;20.37;12.90;;;4.60;92.40;;;;;;5033183;28;20076;-71
2023/02/03 08:28:00;;;;;;;22.50;12.90;;;4.70;92.30;;;;;;5032480;28;20042;-71
2023/02/03 08:30:25;;;;;;;22.53;11.53;;;4.70;92.10;;;;;;5033190;28;20033;-71
2023/02/03 08:32:51;;;;;;;20.03;11.90;;;4.80;91.90;;;;;;5031960;28;20053;-70
2023/02/03 08:35:17;;;;;;;18.03;11.80;;;4.90;91.90;;;;;;5033081;28;20025;-70
2023/02/03 08:37:43;;;;;;;19.27;11.90;;;5.00;91.80;;;;;;5032796;28;20040;-70
2023/02/03 08:40:09;;;;;;;17.80;11.83;;;5.00;91.60;;;;;;5032693;28;20029;-70
2023/02/03 08:42:35;;;;;;;20.87;13.17;;;5.10;91.60;;;;;;5032957;28;20041;-71
2023/02/03 08:45:01;;;;;;;21.53;12.60;;;5.20;91.50;;;;;;5033136;28;20033;-71
2023/02/03 08:47:27;;;;;;;20.07;11.20;;;5.30;91.40;;;;;;5032998;28;20392;-70
2023/02/03 08:49:53;;;;;;;19.63;12.20;;;5.30;91.40;;;;;;5033014;28;20037;-71
2023/02/03 08:52:19;;;;;;;22.90;12.17;;;5.40;91.40;;;;;;5032854;28;20116;-71
2023/02/03 08:54:46;;;;;;;18.57;11.77;;;5.50;91.30;;;;;;5033051;28;20030;-70
2023/02/03 08:57:12;;;;;;;17.87;11.97;;;5.60;91.10;;;;;;5032981;28;20041;-70
2023/02/03 08:59:39;;;;;;;17.67;11.00;;;5.60;91.10;;;;;;5032974;28;20061;-71
2023/02/03 09:02:08;;;;;;;18.37;11.90;;;5.70;90.90;;;;;;5032449;28;20049;-71
2023/02/03 09:04:34;;;;;;;17.60;12.17;;;5.70;90.80;;;;;;5032681;28;20103;-71
2023/02/03 09:07:03;;;;;;;21.07;13.27;;;5.80;90.80;;;;;;5032770;28;20468;-71
2023/02/03 09:09:29;;;;;;;26.60;12.60;;;5.80;90.60;;;;;;5032683;28;20037;-70
2023/02/03 09:12:00;;;;;;;18.27;11.80;;;5.90;90.40;;;;;;5032779;28;20470;-70
2023/02/03 09:14:31;;;;;;;20.07;12.60;;;6.00;90.30;;;;;;5033018;28;20038;-70
2023/02/03 09:17:02;;;;;;;17.27;12.13;;;6.00;90.10;;;;;;5032619;28;20037;-70
2023/02/03 09:19:28;;;;;;;19.03;11.77;;;6.10;90.20;;;;;;5032646;28;20034;-71
2023/02/03 09:21:56;;;;;;;21.57;11.80;;;6.10;90.00;;;;;;5032693;28;20039;-70
2023/02/03 09:24:21;;;;;;;17.33;10.90;;;6.20;90.00;;;;;;5032538;28;20044;-70
2023/02/03 09:26:47;;;;;;;24.30;12.00;;;6.30;90.00;;;;;;5032673;28;20116;-71
2023/02/03 09:29:13;;;;;;;30.43;12.40;;;6.30;89.90;;;;;;5032561;28;20030;-70
2023/02/03 09:31:39;;;;;;;17.80;12.43;;;6.40;89.60;;;;;;5032671;28;20041;-70
2023/02/03 09:34:04;;;;;;;18.87;12.27;;;6.50;89.20;;;;;;5032650;28;20065;-70
2023/02/03 09:36:30;;;;;;;20.83;12.77;;;6.60;89.10;;;;;;5032502;28;20033;-70
2023/02/03 09:38:57;;;;;;;21.60;13.20;;;6.70;88.80;;;;;;5032761;28;20045;-70
2023/02/03 09:41:49;;;;;;;24.13;13.43;;;6.70;88.50;;;;;;5032490;28;20488;-70
2023/02/03 09:44:26;;;;;;;18.52;12.45;;;6.80;88.30;;;;;;5032475;28;20075;-70
2023/02/03 09:47:15;;;;;;;24.67;13.40;;;6.90;88.10;;;;;;5032354;28;20096;-71
2023/02/03 09:50:04;;;;;;;22.00;13.90;;;7.00;87.80;;;;;;5032621;28;20033;-70
2023/02/03 09:52:38;;;;;;;23.13;14.37;;;7.10;87.60;;;;;;5032127;28;20053;-70
2023/02/03 09:55:23;;;;;;;24.50;15.70;;;7.10;87.10;;;;;;5032443;28;20057;-70
2023/02/03 09:58:10;;;;;;;26.00;16.47;;;7.20;87.00;;;;;;5032299;28;20124;-70
2023/02/03 10:00:46;;;;;;;27.93;16.10;;;7.30;86.50;;;;;;5032378;28;20111;-70
2023/02/03 10:03:27;;;;;;;28.60;16.93;;;7.40;86.20;;;;;;5031268;28;20042;-70
2023/02/03 10:06:10;;;;;;;29.77;17.53;;;7.50;86.40;;;;;;5032483;28;20038;-71
2023/02/03 10:09:00;;;;;;;23.73;15.85;;;7.50;86.10;;;;;;5035886;28;20036;-70
2023/02/03 10:11:48;;;;;;;23.17;16.27;;;7.60;85.90;;;;;;5035988;28;20040;-70
2023/02/03 10:14:39;;;;;;;28.20;18.00;;;7.70;85.90;;;;;;5036245;28;20044;-71
2023/02/03 10:17:21;;;;;;;30.70;17.03;;;7.80;85.80;;;;;;5035916;28;20041;-71
2023/02/03 10:20:08;;;;;;;25.75;16.45;;;7.90;85.70;;;;;;5035618;28;20388;-71
2023/02/03 10:22:41;;;;;;;29.90;17.90;;;8.00;86.10;;;;;;5035740;28;20033;-70
2023/02/03 10:25:13;;;;;;;39.23;19.00;;;8.00;85.80;;;;;;5035949;28;20479;-71
2023/02/03 10:27:41;;;;;;;27.10;17.80;;;8.10;85.80;;;;;;5035548;28;20037;-71
2023/02/03 10:30:16;;;;;;;31.53;19.17;;;8.20;85.60;;;;;;5035654;28;20036;-71
2023/02/03 10:32:42;;;;;;;33.33;19.17;;;8.30;85.60;;;;;;5035264;28;20044;-71
2023/02/03 10:35:12;;;;;;;32.77;19.30;;;8.30;84.90;;;;;;5035477;28;20025;-70
2023/02/03 10:37:46;;;;;;;29.30;19.43;;;8.40;84.70;;;;;;5035267;28;20041;-71
2023/02/03 10:40:14;;;;;;;29.20;20.07;;;8.50;84.60;;;;;;5035502;28;20034;-71
2023/02/03 10:45:36;;;;;;;33.70;21.23;;;8.70;84.40;;;;;;5035718;28;20045;-70
2023/02/03 10:48:03;;;;;;;34.13;21.60;;;8.80;84.30;;;;;;5035261;28;20037;-71
2023/02/03 10:50:31;;;;;;;33.70;22.43;;;8.80;84.00;;;;;;5035170;28;20271;-71
2023/02/03 10:53:31;;;;;;;38.47;24.10;;;8.90;84.00;;;;;;5035169;28;20048;-71
2023/02/03 10:56:06;;;;;;;41.83;25.37;;;9.00;84.20;;;;;;5035062;28;20159;-70
2023/02/03 10:58:33;;;;;;;46.40;26.37;;;9.10;83.90;;;;;;5035107;28;20495;-70
2023/02/03 11:01:12;;;;;;;49.10;28.33;;;9.10;83.50;;;;;;5035060;28;20125;-70
2023/02/03 11:03:43;;;;;;;47.60;30.10;;;9.20;83.60;;;;;;5035002;28;20068;-70
2023/02/03 11:06:15;;;;;;;61.87;40.23;;;9.20;83.80;;;;;;5034815;28;20102;-70
2023/02/03 11:08:43;;;;;;;60.00;41.87;;;9.20;84.50;;;;;;5034702;28;20061;-70
2023/02/03 11:11:14;;;;;;;62.77;39.23;;;9.20;85.30;;;;;;5035132;28;20210;-70
2023/02/03 11:13:40;;;;;;;55.40;35.47;;;9.30;86.30;;;;;;5034602;28;20053;-70
2023/02/03 11:16:13;;;;;;;53.40;34.23;;;9.40;85.80;;;;;;5034623;28;20036;-70
2023/02/03 11:18:58;;;;;;;46.63;31.20;;;9.50;85.10;;;;;;5033428;28;20033;-70
2023/02/03 11:21:28;;;;;;;50.93;32.73;;;9.50;84.60;;;;;;5049741;28;20029;-70
2023/02/03 11:24:08;;;;;;;52.50;34.00;;;9.60;84.80;;;;;;5034575;28;20030;-71
2023/02/03 11:26:54;;;;;;;52.00;33.47;;;9.60;84.30;;;;;;5034465;28;20082;-70
2023/02/03 11:29:29;;;;;;;56.13;33.97;;;9.60;84.30;;;;;;5034469;28;20034;-70
2023/02/03 11:32:00;;;;;;;53.53;33.73;;;9.60;84.30;;;;;;5034599;28;20116;-70
2023/02/03 11:34:29;;;;;;;50.23;33.07;;;9.60;84.10;;;;;;5034111;28;20045;-71
2023/02/03 11:36:55;;;;;;;54.40;33.90;;;9.60;84.10;;;;;;5034283;28;20403;-71
2023/02/03 11:39:24;;;;;;;56.53;35.53;;;9.60;84.30;;;;;;5033965;28;20048;-71
2023/02/03 11:41:50;;;;;;;50.67;33.90;;;9.70;84.80;;;;;;5034267;28;20035;-71
2023/02/03 11:44:25;;;;;;;49.20;33.20;;;9.70;85.30;;;;;;5034234;28;20506;-71
2023/02/03 11:47:06;;;;;;;52.70;32.30;;;9.80;85.00;;;;;;5034057;28;20116;-72
2023/02/03 11:49:56;;;;;;;51.57;31.67;;;9.80;84.60;;;;;;5034208;28;20037;-72
2023/02/03 11:52:27;;;;;;;49.10;31.70;;;9.80;84.90;;;;;;5032741;28;20069;-71
2023/02/03 11:55:11;;;;;;;48.57;32.17;;;9.90;84.60;;;;;;5034013;28;20036;-72
2023/02/03 11:57:46;;;;;;;46.43;30.50;;;10.00;84.50;;;;;;5032722;28;20040;-71
2023/02/03 12:00:41;;;;;;;48.37;31.43;;;10.00;84.30;;;;;;5033552;28;20068;-71
2023/02/03 12:03:38;;;;;;;53.93;32.47;;;10.10;84.00;;;;;;5033953;28;20068;-72
2023/02/03 12:06:20;;;;;;;47.73;32.10;;;10.00;83.70;;;;;;5033738;28;20029;-72
2023/02/03 12:08:55;;;;;;;49.28;33.33;;;10.00;83.70;;;;;;5033664;28;20034;-71
2023/02/03 12:11:28;;;;;;;49.30;32.50;;;10.00;84.20;;;;;;5033837;28;20068;-72
2023/02/03 12:14:08;;;;;;;49.60;32.50;;;10.00;84.50;;;;;;5031239;28;20091;-72
2023/02/03 12:17:03;;;;;;;50.20;31.90;;;9.90;84.60;;;;;;5030860;28;20041;-71
2023/02/03 12:19:50;;;;;;;52.60;31.37;;;9.90;84.90;;;;;;5033082;28;20033;-71
2023/02/03 12:22:23;;;;;;;48.00;31.00;;;9.90;84.40;;;;;;5033308;28;20045;-72
2023/02/03 12:25:25;;;;;;;47.87;31.07;;;9.90;84.40;;;;;;5033463;28;20042;-71
2023/02/03 12:28:02;;;;;;;46.88;30.67;;;9.90;84.60;;;;;;5033448;28;20476;-72
2023/02/03 12:30:37;;;;;;;45.10;29.43;;;9.80;84.40;;;;;;5033164;28;20033;-72
2023/02/03 12:33:19;;;;;;;42.73;29.83;;;9.80;84.60;;;;;;5033201;28;20049;-71
2023/02/03 12:36:02;;;;;;;46.92;30.60;;;9.80;84.90;;;;;;5033027;28;20320;-72
2023/02/03 12:38:40;;;;;;;46.63;30.05;;;9.80;84.90;;;;;;5031292;28;20504;-71
2023/02/03 12:41:15;;;;;;;43.77;29.23;;;9.80;85.00;;;;;;5028814;28;20037;-71
2023/02/03 12:43:49;;;;;;;43.00;28.90;;;9.80;85.60;;;;;;5030436;28;20120;-72
2023/02/03 12:46:34;;;;;;;47.27;31.90;;;9.80;85.60;;;;;;5033286;28;20117;-72
2023/02/03 12:49:09;;;;;;;48.13;29.30;;;9.80;85.80;;;;;;5032937;28;20041;-71
2023/02/03 12:52:00;;;;;;;40.27;27.77;;;9.80;86.10;;;;;;5032952;28;20549;-71
2023/02/03 12:54:44;;;;;;;41.93;26.53;;;9.80;86.30;;;;;;5032561;28;20534;-71
2023/02/03 12:57:25;;;;;;;40.13;26.53;;;9.80;86.50;;;;;;5032954;28;20056;-70
2023/02/03 13:00:09;;;;;;;38.30;24.83;;;9.80;86.50;;;;;;5031445;28;20045;-70